Time;durP1;ratioP1;P1;durP2;ratioP2;P2;SDS_P1;SDS_P2;PMS_P1;PMS_P2;Temp;Humidity;BMP_temperature;BMP_pressure;BME280_temperature;BME280_humidity;BME280_pressure;Samples;Min_cycle;Max_cycle;Signal;HPM_P1;HPM_P2
2023/01/25 00:01:14;;;;;;;7.90;4.82;;;;;;;3.79;54.40;102963.41;5114063;28;20428;-77
2023/01/25 00:03:39;;;;;;;9.63;4.80;;;;;;;3.82;54.58;102971.97;5114138;28;20375;-77
2023/01/25 00:06:05;;;;;;;11.53;5.40;;;;;;;3.82;54.49;102963.28;5112901;28;20384;-77
2023/01/25 00:08:31;;;;;;;9.10;4.53;;;;;;;3.77;54.42;102968.72;5114551;28;20367;-77
2023/01/25 00:10:56;;;;;;;9.83;4.83;;;;;;;3.69;54.39;102964.72;5114019;28;20368;-77
2023/01/25 00:13:21;;;;;;;7.27;4.30;;;;;;;3.82;54.38;102971.13;5113117;28;20943;-77
2023/01/25 00:15:47;;;;;;;7.75;4.80;;;;;;;3.80;54.74;102965.13;5113590;28;20958;-77
2023/01/25 00:18:12;;;;;;;9.20;4.70;;;;;;;3.70;54.53;102969.06;5114052;28;20372;-77
2023/01/25 00:20:38;;;;;;;6.87;4.63;;;;;;;3.76;54.62;102960.91;5114157;28;20923;-77
2023/01/25 00:23:03;;;;;;;8.75;4.90;;;;;;;3.78;54.69;102962.56;5113676;28;20843;-77
2023/01/25 00:25:29;;;;;;;9.17;5.40;;;;;;;3.72;54.67;102970.69;5113009;28;20391;-77
2023/01/25 00:27:54;;;;;;;10.43;5.60;;;;;;;3.77;54.88;102966.09;5113843;28;20379;-77
2023/01/25 00:30:19;;;;;;;8.90;4.97;;;;;;;3.82;54.31;102964.13;5113016;28;20919;-77
2023/01/25 00:33:00;;;;;;;8.90;5.10;;;;;;;3.89;54.85;102969.94;5112068;28;21059;-77
2023/01/25 00:35:31;;;;;;;9.80;5.17;;;;;;;3.81;54.75;102967.66;5113808;27;20387;-77
2023/01/25 00:38:01;;;;;;;9.00;5.00;;;;;;;3.70;55.10;102963.81;5112872;28;20383;-77
2023/01/25 00:40:26;;;;;;;9.82;5.20;;;;;;;3.79;55.01;102958.16;5116536;28;20399;-77
2023/01/25 00:42:52;;;;;;;9.17;4.80;;;;;;;3.73;55.05;102951.41;5121984;28;20378;-77
2023/01/25 00:45:17;;;;;;;8.37;4.90;;;;;;;3.79;55.16;102953.75;5112579;28;20372;-77
2023/01/25 00:47:43;;;;;;;8.17;4.73;;;;;;;3.67;55.12;102958.72;5113278;28;20397;-77
2023/01/25 00:50:09;;;;;;;8.83;5.40;;;;;;;3.70;55.37;102959.41;5113495;28;20386;-76
2023/01/25 00:52:35;;;;;;;11.87;5.00;;;;;;;3.85;55.06;102950.00;5112229;28;20411;-76
2023/01/25 00:55:01;;;;;;;12.07;5.47;;;;;;;3.82;54.97;102958.03;5113692;28;20384;-77
2023/01/25 00:57:26;;;;;;;9.80;5.50;;;;;;;3.90;55.17;102952.41;5113466;28;20376;-76
2023/01/25 00:59:52;;;;;;;7.93;4.68;;;;;;;3.86;55.20;102953.50;5119436;28;20713;-77
2023/01/25 01:02:17;;;;;;;9.93;5.30;;;;;;;3.82;55.10;102958.03;5113249;28;20368;-77
2023/01/25 01:04:43;;;;;;;10.17;5.30;;;;;;;4.00;55.19;102956.31;5112696;28;20852;-77
2023/01/25 01:07:11;;;;;;;9.20;5.23;;;;;;;4.09;54.99;102963.75;5111428;28;20844;-76
2023/01/25 01:09:36;;;;;;;10.13;4.80;;;;;;;4.08;55.09;102966.44;5110416;28;20395;-76
2023/01/25 01:12:02;;;;;;;7.50;4.60;;;;;;;3.89;55.39;102953.31;5110406;28;21454;-76
2023/01/25 01:14:28;;;;;;;9.43;4.90;;;;;;;3.89;55.14;102953.31;5111263;28;20408;-76
2023/01/25 01:16:53;;;;;;;10.47;4.63;;;;;;;3.99;54.97;102954.59;5111240;28;20386;-76
2023/01/25 01:19:19;;;;;;;8.65;5.13;;;;;;;3.97;55.04;102943.34;5110910;28;20386;-76
2023/01/25 01:21:44;;;;;;;10.45;4.97;;;;;;;3.94;55.13;102959.22;5112342;28;20399;-76
2023/01/25 01:24:10;;;;;;;7.83;4.77;;;;;;;3.96;55.36;102949.50;5111705;28;20384;-76
2023/01/25 01:26:36;;;;;;;10.10;4.87;;;;;;;4.04;55.01;102952.63;5111258;28;20379;-76
2023/01/25 01:29:01;;;;;;;9.70;4.97;;;;;;;4.11;55.03;102956.66;5111357;28;20411;-76
2023/01/25 01:31:27;;;;;;;10.03;4.80;;;;;;;4.07;55.09;102951.63;5112253;28;20417;-76
2023/01/25 01:33:54;;;;;;;7.47;4.80;;;;;;;4.11;54.92;102947.94;5112470;28;20458;-76
2023/01/25 01:36:22;;;;;;;9.40;5.13;;;;;;;4.15;55.14;102947.72;5111480;28;20376;-76
2023/01/25 01:38:48;;;;;;;8.25;5.15;;;;;;;4.18;55.40;102952.81;5112243;28;20372;-76
2023/01/25 01:41:14;;;;;;;11.50;6.18;;;;;;;4.27;55.11;102956.78;5111356;28;20379;-76
2023/01/25 01:43:40;;;;;;;8.27;5.30;;;;;;;4.16;54.93;102945.94;5112591;27;20368;-76
2023/01/25 01:46:44;;;;;;;12.55;5.53;;;;;;;4.15;55.36;102933.75;5111361;28;20739;-77
2023/01/25 01:49:15;;;;;;;9.77;5.53;;;;;;;4.05;55.67;102943.81;5066887;28;20474;-76
2023/01/25 01:51:49;;;;;;;11.48;5.70;;;;;;;4.11;55.54;102935.66;5112116;28;20367;-76
2023/01/25 01:54:24;;;;;;;13.10;5.88;;;;;;;4.15;55.33;102937.22;5112104;28;20755;-76
2023/01/25 01:57:11;;;;;;;10.82;5.75;;;;;;;4.18;55.52;102931.81;5111517;28;20787;-76
2023/01/25 01:59:44;;;;;;;9.47;5.40;;;;;;;4.13;55.56;102930.34;5111765;28;20741;-76
2023/01/25 02:02:11;;;;;;;10.30;5.53;;;;;;;4.05;55.70;102935.09;5111965;28;20371;-76
2023/01/25 02:04:36;;;;;;;8.48;5.30;;;;;;;4.00;56.07;102935.31;5112185;28;20372;-75
2023/01/25 02:07:13;;;;;;;10.60;4.93;;;;;;;3.83;56.43;102917.72;5112111;28;20375;-76
2023/01/25 02:09:39;;;;;;;11.30;5.53;;;;;;;3.90;56.23;102919.16;5111700;28;20817;-75
2023/01/25 02:12:06;;;;;;;10.88;5.90;;;;;;;3.97;56.22;102917.94;5110367;28;20474;-75
2023/01/25 02:14:33;;;;;;;11.60;5.55;;;;;;;3.95;56.18;102913.69;5111530;28;20425;-75
2023/01/25 02:16:59;;;;;;;10.88;5.85;;;;;;;4.06;55.66;102918.44;5111651;28;20847;-76
2023/01/25 02:19:57;;;;;;;11.18;5.78;;;;;;;3.97;55.81;102911.84;5111399;28;20440;-76
2023/01/25 02:22:30;;;;;;;12.57;5.68;;;;;;;4.01;56.28;102918.63;5066674;28;20379;-76
2023/01/25 02:25:09;;;;;;;10.32;5.60;;;;;;;3.95;56.49;102901.41;5110378;28;20372;-77
2023/01/25 02:27:39;;;;;;;11.57;5.72;;;;;;;3.86;56.02;102914.13;5117426;28;20701;-76
2023/01/25 02:30:05;;;;;;;11.35;5.50;;;;;;;3.85;56.19;102917.66;5115830;28;20441;-77
2023/01/25 02:32:32;;;;;;;11.02;5.22;;;;;;;3.74;56.56;102913.75;5111255;28;20407;-77
2023/01/25 02:34:57;;;;;;;10.90;5.50;;;;;;;3.76;56.53;102911.06;5111660;28;20535;-76
2023/01/25 02:37:23;;;;;;;10.13;5.87;;;;;;;3.70;56.48;102904.34;5111232;28;20379;-76
2023/01/25 02:39:49;;;;;;;9.97;5.53;;;;;;;3.70;56.24;102909.59;5111174;28;20508;-77
2023/01/25 02:42:15;;;;;;;11.18;6.00;;;;;;;3.76;56.37;102905.81;5111919;28;20380;-76
2023/01/25 02:44:42;;;;;;;10.27;5.43;;;;;;;3.93;56.24;102905.88;5116848;28;20384;-75
2023/01/25 02:47:08;;;;;;;9.90;5.55;;;;;;;3.90;56.73;102907.81;5116931;28;20372;-76
2023/01/25 02:49:37;;;;;;;9.73;5.15;;;;;;;3.82;56.48;102911.63;5112298;28;20525;-76
2023/01/25 02:52:04;;;;;;;11.65;5.78;;;;;;;3.74;56.65;102910.28;5111597;28;20395;-76
2023/01/25 02:54:30;;;;;;;10.95;5.72;;;;;;;3.83;56.84;102909.84;5110713;28;20442;-76
2023/01/25 02:56:56;;;;;;;13.60;5.60;;;;;;;3.90;56.52;102911.28;5111412;28;20470;-76
2023/01/25 02:59:21;;;;;;;9.18;5.28;;;;;;;3.94;56.42;102902.34;5110072;28;20379;-76
2023/01/25 03:01:47;;;;;;;10.30;5.63;;;;;;;3.80;56.76;102907.41;5111155;28;20371;-76
2023/01/25 03:04:13;;;;;;;11.23;5.70;;;;;;;3.71;56.87;102906.06;5111159;28;20463;-76
2023/01/25 03:06:39;;;;;;;11.60;5.90;;;;;;;3.75;56.92;102896.28;5111096;28;20371;-77
2023/01/25 03:09:08;;;;;;;10.98;5.90;;;;;;;3.69;56.52;102893.91;5112764;28;20443;-77
2023/01/25 03:11:34;;;;;;;9.90;5.32;;;;;;;3.63;56.97;102895.88;5115500;28;20371;-77
2023/01/25 03:13:59;;;;;;;11.18;5.93;;;;;;;3.60;56.58;102901.31;5115241;28;20395;-77
2023/01/25 03:16:25;;;;;;;12.68;5.63;;;;;;;3.56;56.83;102906.75;5114319;28;20781;-77
2023/01/25 03:18:53;;;;;;;14.38;6.00;;;;;;;3.47;56.89;102894.91;5115082;28;20390;-77
2023/01/25 03:21:20;;;;;;;9.73;5.43;;;;;;;3.49;56.87;102898.28;5115023;28;20437;-77
2023/01/25 03:23:52;;;;;;;10.63;6.13;;;;;;;3.58;57.03;102890.03;5114370;28;20848;-77
2023/01/25 03:26:20;;;;;;;14.07;6.13;;;;;;;3.48;56.72;102894.00;5114785;28;20372;-77
2023/01/25 03:28:45;;;;;;;12.38;7.32;;;;;;;3.54;56.58;102895.47;5114624;28;20376;-77
2023/01/25 03:31:14;;;;;;;10.18;6.10;;;;;;;3.52;56.96;102892.91;5115034;28;20386;-76
2023/01/25 03:33:40;;;;;;;12.07;6.10;;;;;;;3.59;56.45;102898.75;5114645;27;20411;-77
2023/01/25 03:36:06;;;;;;;11.68;6.00;;;;;;;3.64;56.64;102902.84;5113705;28;20445;-77
2023/01/25 03:38:32;;;;;;;14.63;6.75;;;;;;;3.60;56.58;102893.44;5114543;28;20383;-77
2023/01/25 03:40:58;;;;;;;13.95;6.22;;;;;;;3.66;56.63;102891.47;5114684;28;20862;-77
2023/01/25 03:43:24;;;;;;;10.40;6.00;;;;;;;3.78;56.20;102889.09;5114772;28;20371;-77
2023/01/25 03:45:58;;;;;;;11.35;6.13;;;;;;;3.77;56.13;102899.66;5114752;28;20805;-77
2023/01/25 03:48:25;;;;;;;11.65;6.05;;;;;;;3.73;56.15;102896.34;5114087;28;20372;-77
2023/01/25 03:50:52;;;;;;;11.77;6.28;;;;;;;3.73;56.15;102900.75;5113207;28;20827;-77
2023/01/25 03:53:28;;;;;;;11.25;6.50;;;;;;;3.70;56.48;102900.88;5113081;28;20407;-76
2023/01/25 03:56:01;;;;;;;13.73;6.32;;;;;;;3.48;57.04;102901.84;5113532;28;20462;-76
2023/01/25 03:58:27;;;;;;;10.85;6.25;;;;;;;3.42;57.05;102904.75;5113017;27;20394;-77
2023/01/25 04:00:56;;;;;;;12.63;6.35;;;;;;;3.39;57.50;102895.25;5113114;28;20782;-77
2023/01/25 04:03:22;;;;;;;11.75;6.60;;;;;;;3.50;57.16;102894.75;5112989;27;20701;-77
2023/01/25 04:05:47;;;;;;;11.40;6.27;;;;;;;3.56;56.72;102901.50;5113190;28;20460;-76
2023/01/25 04:08:13;;;;;;;12.47;5.70;;;;;;;3.47;57.02;102896.69;5112603;28;20754;-76
2023/01/25 04:10:39;;;;;;;14.50;6.63;;;;;;;3.44;56.99;102892.44;5113392;28;20382;-76
2023/01/25 04:13:04;;;;;;;12.73;6.63;;;;;;;3.50;56.97;102901.78;5118564;28;20407;-76
2023/01/25 04:15:29;;;;;;;12.73;6.80;;;;;;;3.54;56.95;102898.94;5118873;28;20440;-76
2023/01/25 04:17:55;;;;;;;12.55;6.25;;;;;;;3.48;56.85;102890.53;5114119;28;20391;-77
2023/01/25 04:20:21;;;;;;;12.15;7.40;;;;;;;3.61;56.64;102899.53;5112613;28;20379;-77
2023/01/25 04:22:46;;;;;;;12.23;6.72;;;;;;;3.51;57.24;102893.84;5113684;28;20367;-77
2023/01/25 04:25:12;;;;;;;10.63;6.65;;;;;;;3.45;57.41;102884.47;5112800;27;20376;-76
2023/01/25 04:27:37;;;;;;;11.77;6.93;;;;;;;3.45;57.27;102891.50;5112472;28;20422;-76
2023/01/25 04:30:04;;;;;;;11.77;6.97;;;;;;;3.48;57.72;102893.16;5117071;28;20492;-76
2023/01/25 04:32:29;;;;;;;13.13;7.05;;;;;;;3.61;56.96;102899.53;5115371;28;20439;-77
2023/01/25 04:34:55;;;;;;;14.20;7.23;;;;;;;3.47;57.31;102892.28;5112720;28;20429;-77
2023/01/25 04:37:20;;;;;;;12.67;7.40;;;;;;;3.58;57.36;102894.41;5111296;28;20738;-77
2023/01/25 04:39:46;;;;;;;15.17;7.47;;;;;;;3.48;57.27;102893.16;5111309;28;20384;-77
2023/01/25 04:42:11;;;;;;;11.47;7.23;;;;;;;3.47;57.56;102896.69;5112113;28;20454;-76
2023/01/25 04:44:36;;;;;;;14.38;6.78;;;;;;;3.38;57.57;102892.69;5111182;28;20798;-76
2023/01/25 04:47:02;;;;;;;15.27;8.07;;;;;;;3.35;57.83;102896.31;5109081;28;20379;-75
2023/01/25 04:49:28;;;;;;;15.23;7.10;;;;;;;3.37;58.00;102894.47;5111610;28;20395;-76
2023/01/25 04:51:53;;;;;;;11.50;6.73;;;;;;;3.15;58.25;102888.47;5111286;28;20391;-75
2023/01/25 04:54:19;;;;;;;14.80;8.03;;;;;;;3.09;58.77;102889.59;5111717;28;20507;-76
2023/01/25 04:56:44;;;;;;;14.20;7.65;;;;;;;3.20;58.34;102897.84;5111609;27;20415;-76
2023/01/25 04:59:10;;;;;;;14.00;8.00;;;;;;;3.30;58.42;102900.91;5111062;28;20395;-76
2023/01/25 05:01:35;;;;;;;12.20;7.63;;;;;;;3.22;58.49;102896.03;5112694;28;20474;-76
2023/01/25 05:04:00;;;;;;;14.27;8.20;;;;;;;3.37;58.26;102894.47;5114569;28;20854;-75
2023/01/25 05:06:26;;;;;;;11.50;7.38;;;;;;;3.39;58.02;102904.91;5109836;28;20398;-75
2023/01/25 05:08:51;;;;;;;12.40;7.57;;;;;;;3.19;58.76;102897.94;5112309;27;20462;-76
2023/01/25 05:11:17;;;;;;;13.50;7.50;;;;;;;3.28;58.71;102900.13;5110270;28;20399;-76
2023/01/25 05:13:42;;;;;;;10.57;6.77;;;;;;;3.22;58.80;102908.25;5111616;27;20879;-75
2023/01/25 05:16:08;;;;;;;10.43;6.68;;;;;;;3.06;59.38;102889.72;5112689;28;20375;-76
2023/01/25 05:18:33;;;;;;;12.27;7.33;;;;;;;3.22;59.08;102895.16;5111407;28;20386;-75
2023/01/25 05:20:59;;;;;;;13.33;7.23;;;;;;;3.22;58.90;102896.03;5112130;28;20379;-76
2023/01/25 05:23:24;;;;;;;11.87;7.03;;;;;;;3.33;58.70;102895.53;5108560;28;20388;-77
2023/01/25 05:28:33;;;;;;;12.32;6.90;;;;;;;3.31;58.72;102897.34;5112605;28;20407;-77
2023/01/25 05:31:02;;;;;;;13.93;7.15;;;;;;;3.37;58.67;102893.63;5106735;28;20411;-77
2023/01/25 05:33:28;;;;;;;14.02;7.40;;;;;;;3.32;58.76;102899.06;5104326;28;20403;-76
2023/01/25 05:35:55;;;;;;;12.63;7.15;;;;;;;3.35;58.88;102904.19;5105672;28;20379;-76
2023/01/25 05:38:20;;;;;;;12.95;7.20;;;;;;;3.32;58.87;102909.56;5099897;28;20391;-77
2023/01/25 05:40:46;;;;;;;15.85;8.15;;;;;;;3.27;58.74;102901.03;5100430;28;20420;-77
2023/01/25 05:43:11;;;;;;;15.20;8.13;;;;;;;3.16;59.04;102912.00;5106339;28;20835;-76
2023/01/25 05:45:37;;;;;;;12.67;7.00;;;;;;;3.06;59.32;102901.09;5110913;28;20736;-77
2023/01/25 05:48:02;;;;;;;13.90;7.40;;;;;;;3.23;59.18;102909.97;5108994;27;20394;-75
2023/01/25 05:50:28;;;;;;;17.77;8.15;;;;;;;3.29;59.12;102904.44;5110400;28;20399;-76
2023/01/25 05:52:53;;;;;;;18.02;8.65;;;;;;;3.36;58.81;102905.88;5108261;28;20419;-76
2023/01/25 05:55:19;;;;;;;20.70;9.53;;;;;;;3.25;59.13;102897.66;5105717;28;20463;-76
2023/01/25 05:57:44;;;;;;;19.53;9.90;;;;;;;3.26;59.03;102907.22;5113426;28;20444;-76
2023/01/25 06:00:11;;;;;;;19.90;10.03;;;;;;;3.28;59.25;102901.88;5115507;28;20781;-75
2023/01/25 06:02:36;;;;;;;18.50;9.65;;;;;;;3.41;59.17;102911.75;5105670;28;20875;-76
2023/01/25 06:05:05;;;;;;;17.10;8.30;;;;;;;3.28;58.82;102908.00;5108437;28;20375;-77
2023/01/25 06:07:35;;;;;;;19.00;8.75;;;;;;;3.21;59.12;102909.19;5096819;28;20464;-77
2023/01/25 06:10:02;;;;;;;13.77;8.32;;;;;;;3.23;59.27;102909.97;5108728;28;20379;-77
2023/01/25 06:12:28;;;;;;;15.27;7.80;;;;;;;3.19;59.34;102904.00;5110311;28;20475;-77
2023/01/25 06:14:53;;;;;;;18.47;8.90;;;;;;;3.30;58.99;102907.94;5099566;28;20374;-76
2023/01/25 06:17:18;;;;;;;12.70;7.32;;;;;;;3.09;59.26;102910.56;5115953;28;20693;-77
2023/01/25 06:19:44;;;;;;;15.03;8.07;;;;;;;3.25;59.32;102921.22;5110302;28;20372;-76
2023/01/25 06:22:09;;;;;;;12.87;7.20;;;;;;;3.32;58.92;102919.19;5111141;28;20395;-77
2023/01/25 06:24:35;;;;;;;13.70;7.90;;;;;;;3.34;58.76;102925.22;5110102;28;20462;-77
2023/01/25 06:27:00;;;;;;;14.25;7.65;;;;;;;3.20;59.43;102910.94;5109852;27;20376;-77
2023/01/25 06:29:26;;;;;;;15.47;8.17;;;;;;;3.18;59.44;102909.31;5109713;28;20431;-76
2023/01/25 06:31:51;;;;;;;18.93;8.70;;;;;;;3.31;59.25;102917.47;5109945;28;20440;-77
2023/01/25 06:34:17;;;;;;;13.47;7.20;;;;;;;3.26;59.45;102912.47;5110558;28;20391;-76
2023/01/25 06:36:42;;;;;;;12.63;7.13;;;;;;;3.36;58.88;102907.66;5110949;28;20390;-77
2023/01/25 06:39:08;;;;;;;14.63;7.97;;;;;;;3.22;59.14;102909.13;5111181;28;20380;-77
2023/01/25 06:41:34;;;;;;;13.07;7.88;;;;;;;3.24;59.01;102911.66;5108294;28;20379;-76
2023/01/25 06:43:59;;;;;;;15.57;8.48;;;;;;;3.33;59.03;102907.78;5109567;28;20722;-76
2023/01/25 06:46:24;;;;;;;14.23;7.57;;;;;;;3.38;58.88;102909.28;5108937;28;20368;-78
2023/01/25 06:48:50;;;;;;;14.20;7.80;;;;;;;3.43;58.52;102899.44;5108620;28;20444;-77
2023/01/25 06:51:16;;;;;;;14.05;7.63;;;;;;;3.41;58.67;102905.69;5106799;28;20492;-77
2023/01/25 06:53:44;;;;;;;13.50;7.63;;;;;;;3.32;58.55;102900.84;5106675;28;20460;-77
2023/01/25 06:56:18;;;;;;;17.50;8.55;;;;;;;3.34;58.94;102910.34;5104578;28;20364;-78
2023/01/25 06:58:44;;;;;;;15.05;8.40;;;;;;;3.32;58.69;102906.94;5109688;28;20367;-78
2023/01/25 07:01:15;;;;;;;17.80;8.70;;;;;;;3.40;58.52;102910.06;5102793;28;20384;-78
2023/01/25 07:03:41;;;;;;;14.15;8.52;;;;;;;3.28;59.15;102912.38;5092178;28;20379;-78
2023/01/25 07:06:09;;;;;;;15.98;8.45;;;;;;;3.34;58.69;102909.50;5109439;28;20435;-76
2023/01/25 07:08:35;;;;;;;14.52;8.80;;;;;;;3.29;58.79;102914.94;5107578;28;20848;-75
2023/01/25 07:11:04;;;;;;;17.00;8.75;;;;;;;3.36;58.91;102913.72;5108430;28;20364;-76
2023/01/25 07:13:31;;;;;;;12.53;7.40;;;;;;;3.27;58.92;102911.53;5108219;28;20771;-77
2023/01/25 07:16:02;;;;;;;11.90;7.15;;;;;;;3.25;58.87;102908.13;5108191;28;20780;-78
2023/01/25 07:18:29;;;;;;;13.33;7.80;;;;;;;3.40;58.54;102912.69;5104733;28;20498;-79
2023/01/25 07:21:00;;;;;;;12.85;7.93;;;;;;;3.42;58.28;102905.59;5107772;28;20378;-76
2023/01/25 07:23:26;;;;;;;13.30;7.70;;;;;;;3.52;58.08;102911.28;5109269;28;20954;-76
2023/01/25 07:25:52;;;;;;;13.73;7.53;;;;;;;3.51;57.98;102904.34;5109179;28;20378;-76
2023/01/25 07:28:17;;;;;;;13.63;8.30;;;;;;;3.51;57.62;102909.59;5106518;28;20468;-76
2023/01/25 07:30:43;;;;;;;13.70;7.83;;;;;;;3.50;57.95;102905.25;5109595;28;20414;-77
2023/01/25 07:33:09;;;;;;;13.10;7.45;;;;;;;3.57;57.87;102903.22;5094478;28;20400;-76
2023/01/25 07:35:35;;;;;;;13.45;7.25;;;;;;;3.35;58.14;102901.56;5106992;28;20387;-77
2023/01/25 07:38:01;;;;;;;16.15;7.30;;;;;;;3.31;58.42;102899.13;5109897;28;20376;-78
2023/01/25 07:40:26;;;;;;;10.27;6.70;;;;;;;3.32;58.01;102916.59;5109789;28;20840;-77
2023/01/25 07:42:52;;;;;;;15.10;7.70;;;;;;;3.49;58.09;102905.31;5107706;28;20380;-76
2023/01/25 07:45:18;;;;;;;11.00;7.17;;;;;;;3.60;57.69;102909.16;5113893;28;20941;-77
2023/01/25 07:47:44;;;;;;;13.38;8.00;;;;;;;3.73;57.53;102905.97;5112189;28;20372;-77
2023/01/25 07:50:10;;;;;;;13.75;8.27;;;;;;;3.88;57.28;102910.50;5109207;28;20767;-75
2023/01/25 07:52:36;;;;;;;12.10;7.47;;;;;;;3.87;57.22;102914.06;5106994;28;20476;-76
2023/01/25 07:55:01;;;;;;;13.27;7.80;;;;;;;3.99;57.17;102907.38;5108229;28;20579;-75
2023/01/25 07:57:29;;;;;;;14.33;8.47;;;;;;;3.92;56.67;102909.44;5113854;28;20437;-76
2023/01/25 07:59:55;;;;;;;14.33;8.70;;;;;;;3.98;56.81;102910.91;5112987;28;20454;-75
2023/01/25 08:02:20;;;;;;;12.00;7.30;;;;;;;4.03;56.65;102903.66;5105571;28;20378;-76
2023/01/25 08:04:46;;;;;;;12.27;7.00;;;;;;;4.07;56.25;102914.88;5118872;28;21667;-77
2023/01/25 08:07:13;;;;;;;12.70;7.20;;;;;;;4.05;56.32;102901.81;5111241;28;20371;-77
2023/01/25 08:09:39;;;;;;;11.32;7.28;;;;;;;4.11;56.24;102890.19;5110642;28;20421;-77
2023/01/25 08:12:05;;;;;;;11.48;6.95;;;;;;;4.10;55.85;102901.59;5113259;28;20414;-77
2023/01/25 08:14:31;;;;;;;14.30;6.93;;;;;;;4.11;56.09;102893.66;5113155;28;20375;-76
2023/01/25 08:16:57;;;;;;;13.23;6.50;;;;;;;4.14;55.70;102901.41;5110088;28;20370;-76
2023/01/25 08:19:23;;;;;;;7.93;5.50;;;;;;;4.10;55.19;102904.22;5110970;28;20368;-76
2023/01/25 08:21:49;;;;;;;9.20;5.63;;;;;;;3.97;55.01;102902.19;5113171;28;20372;-76
2023/01/25 08:24:14;;;;;;;9.50;5.73;;;;;;;4.10;55.15;102905.06;5112235;28;20379;-76
2023/01/25 08:26:42;;;;;;;9.82;5.50;;;;;;;4.17;54.64;102898.59;5110734;28;20379;-77
2023/01/25 08:29:09;;;;;;;10.02;5.45;;;;;;;4.16;54.99;102898.69;5110946;28;20395;-76
2023/01/25 08:31:35;;;;;;;9.27;5.57;;;;;;;4.14;54.85;102903.16;5108361;27;20385;-76
2023/01/25 08:34:01;;;;;;;10.75;5.60;;;;;;;4.05;55.03;102895.72;5103961;28;20395;-76
2023/01/25 08:36:27;;;;;;;10.00;5.72;;;;;;;4.06;54.92;102902.69;5113348;28;20463;-79
2023/01/25 08:38:55;;;;;;;7.43;5.37;;;;;;;4.06;55.32;102900.91;5113029;28;20482;-78
2023/01/25 08:41:21;;;;;;;9.65;5.60;;;;;;;4.18;54.74;102897.69;5111174;28;20417;-77
2023/01/25 08:43:46;;;;;;;9.57;5.40;;;;;;;4.14;54.92;102888.28;5110511;28;20391;-77
2023/01/25 08:46:14;;;;;;;8.73;5.83;;;;;;;4.21;55.11;102900.19;5113739;27;20811;-77
2023/01/25 08:48:39;;;;;;;11.25;5.90;;;;;;;4.17;54.58;102895.13;5113824;28;20376;-76
2023/01/25 08:51:11;;;;;;;10.68;6.70;;;;;;;4.17;54.73;102898.59;5096256;28;20938;-77
2023/01/25 08:53:37;;;;;;;11.00;6.20;;;;;;;4.34;54.88;102896.94;5106425;28;20483;-76
2023/01/25 08:56:10;;;;;;;11.70;6.82;;;;;;;4.27;54.92;102891.16;5113621;28;20467;-77
2023/01/25 08:58:38;;;;;;;12.35;7.03;;;;;;;4.35;54.09;102896.84;5113209;28;20371;-75
2023/01/25 09:01:06;;;;;;;13.55;7.78;;;;;;;4.81;58.25;102895.47;5113125;28;20436;-75
2023/01/25 09:03:35;;;;;;;8.90;5.50;;;;;;;5.93;61.59;102900.03;5113190;27;20790;-77
2023/01/25 09:06:00;;;;;;;8.88;5.05;;;;;;;6.45;59.55;102894.47;5093494;28;20377;-76
2023/01/25 09:08:26;;;;;;;8.73;4.70;;;;;;;6.26;60.25;102891.19;5112524;28;20472;-76
2023/01/25 09:10:51;;;;;;;11.80;6.20;;;;;;;6.30;56.75;102887.44;5112563;28;20372;-76
2023/01/25 09:13:17;;;;;;;10.27;5.73;;;;;;;5.83;54.76;102886.50;5113311;28;20407;-77
2023/01/25 09:15:43;;;;;;;11.27;6.27;;;;;;;5.56;54.07;102886.25;5112722;28;20513;-77
2023/01/25 09:18:09;;;;;;;10.98;6.30;;;;;;;5.24;53.88;102883.59;5112347;28;20372;-76
2023/01/25 09:20:37;;;;;;;12.55;6.38;;;;;;;5.29;53.63;102884.16;5113573;27;20406;-77
2023/01/25 09:23:03;;;;;;;10.20;6.28;;;;;;;5.26;53.52;102878.25;5113571;28;20810;-77
2023/01/25 09:25:28;;;;;;;12.10;7.00;;;;;;;5.04;53.39;102868.00;5113664;28;20375;-77
2023/01/25 09:27:54;;;;;;;11.00;6.45;;;;;;;5.08;53.44;102870.41;5113584;28;20367;-77
2023/01/25 09:30:19;;;;;;;11.37;6.53;;;;;;;4.99;53.36;102863.00;5112565;28;20488;-78
2023/01/25 09:32:48;;;;;;;12.17;6.93;;;;;;;5.08;53.46;102861.69;5114113;28;20403;-76
2023/01/25 09:35:13;;;;;;;10.00;5.50;;;;;;;5.12;52.68;102858.78;5116501;28;20466;-77
2023/01/25 09:37:39;;;;;;;9.70;6.13;;;;;;;5.03;52.54;102853.19;5113390;28;20420;-76
2023/01/25 09:40:06;;;;;;;10.20;5.70;;;;;;;4.84;52.69;102854.13;5112529;28;20376;-76
2023/01/25 09:42:50;;;;;;;9.90;5.88;;;;;;;4.96;53.33;102850.84;5120170;28;20360;-77
2023/01/25 09:45:35;;;;;;;11.82;6.60;;;;;;;5.03;53.34;102846.13;5121684;28;20406;-75
2023/01/25 09:48:21;;;;;;;11.43;6.50;;;;;;;5.10;53.19;102846.66;5114137;28;21129;-76
2023/01/25 09:50:56;;;;;;;13.98;6.63;;;;;;;5.11;53.10;102829.94;5115360;28;20376;-77
2023/01/25 09:53:25;;;;;;;12.48;7.25;;;;;;;5.26;52.78;102839.66;5115855;28;20859;-77
2023/01/25 09:55:58;;;;;;;10.63;6.18;;;;;;;4.95;53.26;102825.53;5113561;28;20364;-77
2023/01/25 09:58:32;;;;;;;12.30;6.43;;;;;;;4.70;53.35;102836.47;5112971;28;20402;-77
2023/01/25 10:01:11;;;;;;;11.70;5.40;;;;;;;4.73;53.65;102836.28;5111849;28;20459;-77
2023/01/25 10:04:00;;;;;;;9.18;5.65;;;;;;;4.62;53.82;102827.28;5113142;28;20364;-76
2023/01/25 10:06:39;;;;;;;8.57;5.30;;;;;;;4.47;53.98;102826.28;5111879;28;20705;-77
2023/01/25 10:09:10;;;;;;;10.03;5.33;;;;;;;4.48;53.84;102814.84;5112823;28;20459;-77
2023/01/25 10:11:36;;;;;;;11.57;6.32;;;;;;;4.68;53.77;102814.69;5113611;28;20440;-75
2023/01/25 10:14:12;;;;;;;9.73;5.70;;;;;;;4.71;54.10;102813.66;5113098;27;20387;-76
2023/01/25 10:16:46;;;;;;;10.37;5.63;;;;;;;4.67;54.13;102822.63;5112753;28;20429;-77
2023/01/25 10:19:15;;;;;;;12.32;6.30;;;;;;;4.66;54.00;102824.41;5111193;28;20468;-78
2023/01/25 10:21:48;;;;;;;11.30;6.50;;;;;;;4.81;54.13;102806.13;5112958;28;20401;-76
2023/01/25 10:24:30;;;;;;;13.57;6.85;;;;;;;5.01;53.80;102795.44;5111750;28;20359;-76
2023/01/25 10:27:01;;;;;;;10.38;6.30;;;;;;;4.98;53.71;102787.69;5112201;27;20454;-78
2023/01/25 10:29:30;;;;;;;10.95;5.90;;;;;;;4.87;53.57;102775.13;5111889;28;20414;-78
2023/01/25 10:32:18;;;;;;;11.25;6.07;;;;;;;4.69;54.04;102791.88;5111815;28;20380;-78
2023/01/25 10:34:47;;;;;;;10.67;6.07;;;;;;;4.76;53.62;102782.75;5112001;28;20399;-76
2023/01/25 10:37:21;;;;;;;9.88;5.97;;;;;;;4.97;54.12;102773.72;5112525;28;20467;-78
2023/01/25 10:40:13;;;;;;;10.55;6.40;;;;;;;5.10;53.22;102775.69;5111631;28;20736;-77
2023/01/25 10:42:45;;;;;;;11.60;6.63;;;;;;;5.20;53.32;102771.59;5112189;28;20609;-75
2023/01/25 10:45:12;;;;;;;13.43;6.85;;;;;;;5.34;53.53;102762.97;5111985;28;20855;-76
2023/01/25 10:47:41;;;;;;;11.55;6.53;;;;;;;5.30;53.39;102761.44;5111883;28;20379;-76
2023/01/25 10:50:07;;;;;;;13.63;6.90;;;;;;;5.35;53.52;102754.16;5112432;28;20386;-74
2023/01/25 10:52:36;;;;;;;12.38;7.03;;;;;;;5.14;53.54;102758.81;5111628;28;20402;-76
2023/01/25 10:55:17;;;;;;;13.70;6.78;;;;;;;4.89;53.46;102760.13;5111857;28;20495;-76
2023/01/25 10:57:46;;;;;;;10.47;6.17;;;;;;;4.92;54.02;102764.41;5113293;28;20476;-76
2023/01/25 11:00:39;;;;;;;11.68;6.35;;;;;;;4.98;53.68;102746.50;5111886;28;20771;-78
2023/01/25 11:03:18;;;;;;;10.80;6.50;;;;;;;5.00;53.91;102756.09;5100540;28;20476;-76
2023/01/25 11:05:55;;;;;;;13.40;7.95;;;;;;;5.05;53.41;102744.38;5111826;28;20379;-77
2023/01/25 11:08:40;;;;;;;12.47;6.23;;;;;;;5.20;53.27;102747.09;5111928;28;20416;-76
2023/01/25 11:11:34;;;;;;;13.15;6.55;;;;;;;4.93;53.90;102739.78;5112546;28;20729;-79
2023/01/25 11:13:59;;;;;;;10.77;6.60;;;;;;;5.01;53.91;102731.50;5112927;28;20445;-79
2023/01/25 11:16:34;;;;;;;13.60;6.93;;;;;;;5.10;53.51;102731.84;5113981;28;20415;-77
2023/01/25 11:19:01;;;;;;;12.38;6.85;;;;;;;5.05;53.63;102730.41;5111617;28;20903;-76
2023/01/25 11:21:33;;;;;;;9.48;6.40;;;;;;;5.10;53.64;102720.50;5115981;28;20375;-79
2023/01/25 11:23:58;;;;;;;11.60;6.40;;;;;;;4.95;53.79;102719.53;5112055;28;20378;-76
2023/01/25 11:26:23;;;;;;;10.60;6.50;;;;;;;4.96;53.55;102713.34;5111852;28;20372;-76
2023/01/25 11:28:49;;;;;;;11.20;6.17;;;;;;;4.91;53.40;102718.84;5111172;28;20869;-78
2023/01/25 11:31:19;;;;;;;9.65;6.15;;;;;;;4.94;53.59;102696.81;5116161;28;20417;-76
2023/01/25 11:33:44;;;;;;;12.00;6.10;;;;;;;4.97;53.29;102705.38;5115975;28;20403;-76